Sacre-Coeur, Canada
Current Conditions -  °F | °C
As of 4:00 PM on Friday 24 Oct 2014 (Local Time) from CYYY Reporting Station
Overcast Overcast  
Wind Chill:   Ceiling: 8000
Heat Index:   Visibility: 30mi
Dew Point: -2°   Wind: 14mph
Humidity: 53%   Direction: 70°ENE
Pressure: 29.81"   Gusts: 21mph
Location:  48.43°N, 68.58°W
Report Text: CYYY 242000Z 07012G18KT 30SM FEW020 OVC080 07/M02 A2981 RMK SC2AC6 SLP096
Loading
Personal Weather Stations






























Interactive Weather Map
Tropical Storm Tracking
New forecast layout! Learn more

10-Day Weather Forecast

Advertisements
Track Severe Weather on mobile